Time;durP1;ratioP1;P1;durP2;ratioP2;P2;SDS_P1;SDS_P2;PMS_P1;PMS_P2;Temp;Humidity;BMP_temperature;BMP_pressure;BME280_temperature;BME280_humidity;BME280_pressure;Samples;Min_cycle;Max_cycle;Signal;HPM_P1;HPM_P2
2022/08/04 00:02:20;;;;;;;11.90;9.60;;;19.80;99.90;;;;;;4922069;29;20222;-71
2022/08/04 00:04:58;;;;;;;13.90;10.63;;;19.80;99.90;;;;;;4921775;29;20195;-74
2022/08/04 00:07:37;;;;;;;14.20;10.00;;;19.70;99.90;;;;;;4925596;29;20290;-77
2022/08/04 00:10:15;;;;;;;11.23;9.13;;;19.70;99.90;;;;;;4929361;29;20210;-77
2022/08/04 00:12:47;;;;;;;11.43;9.10;;;19.70;99.90;;;;;;4925832;29;20271;-79
2022/08/04 00:15:16;;;;;;;14.60;9.63;;;19.70;99.90;;;;;;4921986;29;20278;-82
2022/08/04 00:17:58;;;;;;;14.53;9.50;;;19.60;99.90;;;;;;4922032;29;20209;-79
2022/08/04 00:20:31;;;;;;;12.20;9.53;;;19.60;99.90;;;;;;4938647;29;20206;-76
2022/08/04 00:22:59;;;;;;;11.13;9.10;;;19.60;99.90;;;;;;4921411;29;20219;-73
2022/08/04 00:25:27;;;;;;;11.63;9.43;;;19.60;99.90;;;;;;4921665;29;20213;-74
2022/08/04 00:27:54;;;;;;;14.53;9.60;;;19.50;99.90;;;;;;4938513;29;20225;-75
2022/08/04 00:30:21;;;;;;;12.10;9.47;;;19.50;99.90;;;;;;4924275;29;20191;-75
2022/08/04 00:32:50;;;;;;;10.97;9.43;;;19.50;99.90;;;;;;4940574;29;20217;-75
2022/08/04 00:35:17;;;;;;;12.67;9.17;;;19.50;99.90;;;;;;4957873;29;20190;-76
2022/08/04 00:37:44;;;;;;;13.90;9.37;;;19.50;99.90;;;;;;4940543;29;20202;-74
2022/08/04 00:40:33;;;;;;;11.53;9.13;;;19.40;99.90;;;;;;4940538;29;20194;-76
2022/08/04 00:43:33;;;;;;;18.57;9.43;;;19.40;99.90;;;;;;4940357;29;20325;-80
2022/08/04 00:46:10;;;;;;;11.93;9.10;;;19.30;99.90;;;;;;4846173;29;20247;-82
2022/08/04 00:49:30;;;;;;;17.97;9.93;;;19.30;99.90;;;;;;4845416;29;20363;-79
2022/08/04 00:52:25;;;;;;;15.30;9.23;;;19.30;99.90;;;;;;4788208;30;20204;-78
2022/08/04 00:55:17;;;;;;;10.57;8.63;;;19.20;99.90;;;;;;4773349;30;20250;-82
2022/08/04 00:58:02;;;;;;;11.33;8.77;;;19.20;99.90;;;;;;4788466;30;20235;-79
2022/08/04 01:00:46;;;;;;;24.00;10.47;;;19.20;99.90;;;;;;4772836;30;20208;-76
2022/08/04 01:03:21;;;;;;;12.90;9.27;;;19.20;99.90;;;;;;4772727;30;20343;-78
2022/08/04 01:06:02;;;;;;;12.53;9.20;;;19.10;99.90;;;;;;4787953;30;20206;-76
2022/08/04 01:11:42;;;;;;;11.13;9.23;;;19.10;99.90;;;;;;4912914;29;20205;-78
2022/08/04 01:14:43;;;;;;;11.93;8.63;;;19.10;99.90;;;;;;4895886;29;20209;-77
2022/08/04 01:17:24;;;;;;;15.27;9.13;;;19.10;99.90;;;;;;4879865;29;20304;-77
2022/08/04 01:20:01;;;;;;;11.07;8.63;;;19.00;99.90;;;;;;4879893;29;20227;-76
2022/08/04 01:22:31;;;;;;;12.87;8.50;;;19.00;99.90;;;;;;4898535;29;20631;-77
2022/08/04 01:25:35;;;;;;;14.17;9.47;;;18.90;99.90;;;;;;4913644;29;20219;-77
2022/08/04 01:28:07;;;;;;;12.77;8.93;;;18.90;99.90;;;;;;4899845;29;20616;-77
2022/08/04 01:30:44;;;;;;;11.70;9.00;;;18.80;99.90;;;;;;4899899;29;20196;-78
2022/08/04 01:33:16;;;;;;;11.27;8.87;;;18.80;99.90;;;;;;4892294;29;20203;-77
2022/08/04 01:35:49;;;;;;;13.93;8.50;;;18.80;99.90;;;;;;4901488;29;20657;-77
2022/08/04 01:38:32;;;;;;;11.27;9.10;;;18.80;99.90;;;;;;4901402;29;20298;-77
2022/08/04 01:41:05;;;;;;;15.53;9.47;;;18.80;99.90;;;;;;4901559;29;20203;-76
2022/08/04 01:43:34;;;;;;;13.57;9.20;;;18.70;99.90;;;;;;4901692;29;20707;-78
2022/08/04 01:46:03;;;;;;;17.60;9.03;;;18.70;99.90;;;;;;4901344;29;20234;-77
2022/08/04 01:48:31;;;;;;;15.20;9.67;;;18.70;99.90;;;;;;4901379;29;20637;-77
2022/08/04 01:51:05;;;;;;;12.43;8.80;;;18.60;99.90;;;;;;4917354;29;20203;-77
2022/08/04 01:53:37;;;;;;;12.30;8.73;;;18.60;99.90;;;;;;4901089;29;20568;-76
2022/08/04 01:56:05;;;;;;;11.03;8.70;;;18.60;99.90;;;;;;4932433;29;20294;-77
2022/08/04 01:58:35;;;;;;;11.80;9.07;;;18.60;99.90;;;;;;4932814;29;20204;-77
2022/08/04 02:01:10;;;;;;;11.47;8.97;;;18.60;99.90;;;;;;4900426;29;20221;-77
2022/08/04 02:03:40;;;;;;;11.73;8.23;;;18.60;99.90;;;;;;4932657;29;20231;-78
2022/08/04 02:06:30;;;;;;;10.30;7.90;;;18.60;99.90;;;;;;4919624;29;20291;-76
2022/08/04 02:09:18;;;;;;;15.47;9.00;;;18.60;99.90;;;;;;4900508;29;20263;-77
2022/08/04 02:12:01;;;;;;;15.20;9.27;;;18.60;99.90;;;;;;4900898;29;20626;-78
2022/08/04 02:14:39;;;;;;;16.53;9.00;;;18.60;99.90;;;;;;4900872;29;20200;-77
2022/08/04 02:17:14;;;;;;;11.53;8.50;;;18.60;99.90;;;;;;4917523;29;20298;-78
2022/08/04 02:20:06;;;;;;;12.77;9.20;;;18.60;99.90;;;;;;4900878;29;20223;-77
2022/08/04 02:22:46;;;;;;;14.90;8.73;;;18.60;99.90;;;;;;4917339;29;20219;-79
2022/08/04 02:25:21;;;;;;;10.53;8.17;;;18.50;99.90;;;;;;4932285;29;20199;-76
2022/08/04 02:28:28;;;;;;;11.77;8.67;;;18.60;99.90;;;;;;4900560;29;20204;-76
2022/08/04 02:31:06;;;;;;;9.00;8.10;;;18.60;99.90;;;;;;4901106;29;20200;-77
2022/08/04 02:33:40;;;;;;;13.57;8.37;;;18.60;99.90;;;;;;4916702;29;20293;-77
2022/08/04 02:36:29;;;;;;;12.37;8.07;;;18.60;99.90;;;;;;4900873;29;20385;-78
2022/08/04 02:39:02;;;;;;;9.73;7.67;;;18.60;99.90;;;;;;4900710;29;20290;-81
2022/08/04 02:41:30;;;;;;;10.43;7.53;;;18.60;99.90;;;;;;4900957;29;20306;-82
2022/08/04 02:44:01;;;;;;;11.37;7.63;;;18.70;99.90;;;;;;4917837;29;20238;-81
2022/08/04 02:46:29;;;;;;;10.60;7.67;;;18.70;99.90;;;;;;4900851;29;20294;-77
2022/08/04 02:48:56;;;;;;;10.40;7.53;;;18.70;99.90;;;;;;4901235;29;20297;-78
2022/08/04 02:51:27;;;;;;;9.60;7.53;;;18.70;99.90;;;;;;4910428;29;20196;-77
2022/08/04 02:53:57;;;;;;;11.80;8.00;;;18.70;99.90;;;;;;4932767;29;20188;-82
2022/08/04 02:56:28;;;;;;;10.63;7.87;;;18.70;99.90;;;;;;4932171;29;20214;-80
2022/08/04 02:58:59;;;;;;;9.47;7.03;;;18.70;99.90;;;;;;4917727;29;20223;-83
2022/08/04 03:01:26;;;;;;;9.50;7.63;;;18.70;99.90;;;;;;4900385;29;20235;-80
2022/08/04 03:04:33;;;;;;;11.50;7.77;;;18.60;99.90;;;;;;4900852;29;20570;-83
2022/08/04 03:07:40;;;;;;;8.57;7.67;;;18.60;99.90;;;;;;4901099;29;20199;-79
2022/08/04 03:13:54;;;;;;;11.00;7.53;;;18.50;99.90;;;;;;4902812;29;20717;-78
2022/08/04 03:17:03;;;;;;;9.70;7.87;;;18.50;99.90;;;;;;4921133;29;20654;-85
2022/08/04 03:19:41;;;;;;;14.27;7.60;;;18.50;99.90;;;;;;4862742;29;20257;-78
2022/08/04 03:23:01;;;;;;;10.90;8.03;;;18.50;99.90;;;;;;4848216;29;20237;-81
2022/08/04 03:26:07;;;;;;;9.80;7.50;;;18.50;99.90;;;;;;4774775;30;20208;-82
2022/08/04 03:29:04;;;;;;;9.57;7.60;;;18.60;99.90;;;;;;4774957;30;20215;-82
2022/08/04 03:31:53;;;;;;;25.20;9.47;;;18.60;99.90;;;;;;4774820;29;20298;-79
2022/08/04 03:34:32;;;;;;;14.03;7.23;;;18.50;99.90;;;;;;4774813;30;20243;-77
2022/08/04 03:37:10;;;;;;;11.17;6.90;;;18.50;99.90;;;;;;4774812;30;20215;-83
2022/08/04 03:40:03;;;;;;;10.43;7.20;;;18.50;99.90;;;;;;4774701;30;20295;-82
2022/08/04 03:42:42;;;;;;;13.53;7.20;;;18.60;99.90;;;;;;4928171;23;20240;-77
2022/08/04 03:45:15;;;;;;;11.37;6.97;;;18.60;99.90;;;;;;4958976;29;20542;-78
2022/08/04 03:48:18;;;;;;;9.80;6.60;;;18.60;99.90;;;;;;4958820;29;20216;-79
2022/08/04 03:53:07;;;;;;;8.03;6.77;;;18.60;99.90;;;;;;4958850;29;20209;-79
2022/08/04 03:54:43;;;;;;;8.20;7.03;;;18.60;99.90;;;;;;4941064;29;20193;-78
2022/08/04 03:57:48;;;;;;;10.47;7.50;;;18.60;99.90;;;;;;4941250;29;20237;-78
2022/08/04 04:00:18;;;;;;;9.67;7.53;;;18.60;99.90;;;;;;4941262;29;20561;-78
2022/08/04 04:03:00;;;;;;;11.63;7.83;;;18.60;99.90;;;;;;4925316;29;20230;-78
2022/08/04 04:06:09;;;;;;;11.80;8.50;;;18.70;99.90;;;;;;4941005;29;20198;-76
2022/08/04 04:09:20;;;;;;;10.47;8.13;;;18.60;99.90;;;;;;4916218;29;20210;-78
2022/08/04 04:12:07;;;;;;;11.60;7.43;;;18.60;99.90;;;;;;4958496;29;20310;-77
2022/08/04 04:14:53;;;;;;;11.07;8.30;;;18.60;99.90;;;;;;4941275;29;20202;-79
2022/08/04 04:17:32;;;;;;;15.80;9.13;;;18.60;99.90;;;;;;4958026;29;20273;-83
2022/08/04 04:20:25;;;;;;;12.10;8.50;;;18.60;99.90;;;;;;4924924;29;20397;-80
2022/08/04 04:23:30;;;;;;;14.83;9.57;;;18.60;99.90;;;;;;4922838;29;20314;-78
2022/08/04 04:26:12;;;;;;;12.00;8.70;;;18.60;99.90;;;;;;4905626;29;20645;-80
2022/08/04 04:29:01;;;;;;;19.33;10.00;;;18.60;99.90;;;;;;4939155;29;20199;-79
2022/08/04 04:32:00;;;;;;;13.33;10.40;;;18.70;99.90;;;;;;4922013;29;20241;-80
2022/08/04 04:34:46;;;;;;;16.50;10.80;;;18.60;99.90;;;;;;4846276;29;20209;-84
2022/08/04 04:37:45;;;;;;;16.67;10.63;;;18.60;99.90;;;;;;4862534;29;20220;-85
2022/08/04 04:40:33;;;;;;;12.23;10.47;;;18.70;99.90;;;;;;4834349;29;20612;-79
2022/08/04 04:43:17;;;;;;;16.20;10.37;;;18.70;99.90;;;;;;4845364;29;20709;-78
2022/08/04 04:46:07;;;;;;;14.17;10.37;;;18.70;99.90;;;;;;4845428;29;20356;-77
2022/08/04 04:49:06;;;;;;;14.53;10.37;;;18.80;99.90;;;;;;4845832;29;20939;-76
2022/08/04 04:52:07;;;;;;;17.67;10.07;;;18.90;99.90;;;;;;4838349;29;20205;-77
2022/08/04 04:54:50;;;;;;;14.90;10.20;;;18.90;99.90;;;;;;4861026;29;20645;-76
2022/08/04 04:57:21;;;;;;;16.50;10.27;;;19.00;99.90;;;;;;4845610;29;20248;-77
2022/08/04 05:00:12;;;;;;;17.60;10.00;;;19.00;99.90;;;;;;4845664;29;20205;-78
2022/08/04 05:03:16;;;;;;;13.90;9.27;;;19.10;99.90;;;;;;4845350;29;20282;-77
2022/08/04 05:06:04;;;;;;;14.30;9.20;;;19.20;99.90;;;;;;4860807;29;20217;-77
2022/08/04 05:09:03;;;;;;;24.00;9.47;;;19.20;99.90;;;;;;4860732;29;20297;-77
2022/08/04 05:12:00;;;;;;;19.43;9.63;;;19.30;99.90;;;;;;4891001;29;20238;-78
2022/08/04 05:14:37;;;;;;;15.50;8.90;;;19.40;99.90;;;;;;4921520;29;20634;-77
2022/08/04 05:17:17;;;;;;;14.00;9.90;;;19.50;99.90;;;;;;4921022;29;20660;-81
2022/08/04 05:20:02;;;;;;;15.07;8.83;;;19.50;99.90;;;;;;4920746;29;20253;-79
2022/08/04 05:22:39;;;;;;;13.67;8.47;;;19.60;99.90;;;;;;4937929;29;20217;-81
2022/08/04 05:25:33;;;;;;;11.07;8.87;;;19.70;99.90;;;;;;4941731;29;20246;-78
2022/08/04 05:28:17;;;;;;;12.67;8.83;;;19.70;99.90;;;;;;4913322;29;20301;-77
2022/08/04 05:30:52;;;;;;;11.77;7.93;;;19.80;99.90;;;;;;4925482;29;20195;-79
2022/08/04 05:33:25;;;;;;;14.43;8.27;;;19.90;99.90;;;;;;4905624;29;20579;-80
2022/08/04 05:36:00;;;;;;;16.40;9.20;;;20.00;99.90;;;;;;4901295;29;20192;-81
2022/08/04 05:38:52;;;;;;;11.10;8.50;;;20.10;99.90;;;;;;4901348;29;20205;-82
2022/08/04 05:41:21;;;;;;;12.67;8.77;;;20.10;99.90;;;;;;4901110;29;20263;-84
2022/08/04 05:43:48;;;;;;;13.87;8.37;;;20.20;99.90;;;;;;4931435;29;20263;-81
2022/08/04 05:46:17;;;;;;;15.17;8.43;;;20.30;99.90;;;;;;4937364;29;20191;-79
2022/08/04 05:48:45;;;;;;;11.87;8.40;;;20.40;99.90;;;;;;4918455;29;20558;-81
2022/08/04 05:51:14;;;;;;;13.60;8.23;;;20.40;99.90;;;;;;4914308;29;20198;-81
2022/08/04 05:53:43;;;;;;;11.37;7.47;;;20.50;99.90;;;;;;4920425;29;20245;-79
2022/08/04 05:56:13;;;;;;;14.33;7.87;;;20.70;99.90;;;;;;4920280;29;20217;-80
2022/08/04 05:58:41;;;;;;;17.63;8.47;;;20.70;99.90;;;;;;4920163;29;20210;-83
2022/08/04 06:01:09;;;;;;;14.23;7.20;;;20.90;99.90;;;;;;4920091;29;20241;-81
2022/08/04 06:03:38;;;;;;;14.27;7.10;;;20.90;99.90;;;;;;4936932;29;20222;-82
2022/08/04 06:06:08;;;;;;;15.00;8.10;;;21.10;99.90;;;;;;4936984;29;20285;-81
2022/08/04 06:08:35;;;;;;;11.83;6.70;;;21.10;99.90;;;;;;4919566;29;20286;-83
2022/08/04 06:11:06;;;;;;;9.97;6.63;;;21.30;99.90;;;;;;4919771;29;20302;-82
2022/08/04 06:13:50;;;;;;;14.70;7.60;;;21.50;99.90;;;;;;4952089;23;20237;-83
2022/08/04 06:16:21;;;;;;;9.60;6.43;;;21.70;99.90;;;;;;4941742;29;20198;-79
2022/08/04 06:19:00;;;;;;;10.57;6.77;;;21.80;99.90;;;;;;4947161;29;20291;-79
2022/08/04 06:21:58;;;;;;;9.77;6.83;;;21.90;99.90;;;;;;4928619;29;20206;-80
2022/08/04 06:24:28;;;;;;;19.47;7.43;;;22.00;99.90;;;;;;4929670;29;20269;-77
2022/08/04 06:26:56;;;;;;;9.70;6.10;;;22.00;99.90;;;;;;4935124;29;20198;-80
2022/08/04 06:29:39;;;;;;;7.80;5.97;;;22.10;99.90;;;;;;4918442;29;20207;-78
2022/08/04 06:33:01;;;;;;;8.37;6.00;;;22.20;99.90;;;;;;4936467;29;20195;-78
2022/08/04 06:35:08;;;;;;;10.77;5.63;;;22.20;99.90;;;;;;4912682;29;20202;-78
2022/08/04 06:37:36;;;;;;;8.27;5.70;;;22.30;99.90;;;;;;4919846;29;20310;-78
2022/08/04 06:40:11;;;;;;;10.80;5.80;;;22.30;99.90;;;;;;4920339;29;20652;-78
2022/08/04 06:43:01;;;;;;;7.00;5.10;;;22.40;99.90;;;;;;4919026;29;20241;-83
2022/08/04 06:45:29;;;;;;;7.80;5.03;;;22.40;99.90;;;;;;4918900;29;20213;-77
2022/08/04 06:47:57;;;;;;;11.50;4.80;;;22.40;99.90;;;;;;4936021;29;20233;-77
2022/08/04 06:50:24;;;;;;;7.83;4.80;;;22.50;99.90;;;;;;4918066;29;20208;-83
2022/08/04 06:53:12;;;;;;;10.70;4.50;;;22.60;99.90;;;;;;4934259;29;20202;-79
2022/08/04 06:55:42;;;;;;;7.10;5.00;;;22.70;99.90;;;;;;4918445;29;20214;-82
2022/08/04 06:58:09;;;;;;;6.67;4.37;;;22.80;99.90;;;;;;4933605;29;20186;-80
2022/08/04 07:00:42;;;;;;;5.22;4.50;;;23.10;99.90;;;;;;4913996;29;20294;-81
2022/08/04 07:03:17;;;;;;;7.57;4.28;;;23.20;99.90;;;;;;4920804;29;20363;-87
2022/08/04 07:05:47;;;;;;;6.43;4.50;;;23.30;99.90;;;;;;4919606;29;20209;-85
2022/08/04 07:08:14;;;;;;;6.60;4.27;;;23.40;99.90;;;;;;4916668;29;20207;-86
2022/08/04 07:10:43;;;;;;;6.47;4.10;;;23.40;99.90;;;;;;4918296;29;20257;-84
2022/08/04 07:13:11;;;;;;;7.17;4.17;;;23.50;99.90;;;;;;4916327;29;20230;-80
2022/08/04 07:15:42;;;;;;;10.18;4.20;;;23.60;99.90;;;;;;4935843;29;20202;-75
2022/08/04 07:18:09;;;;;;;12.52;4.22;;;23.60;99.90;;;;;;4932268;29;20194;-79
2022/08/04 07:20:45;;;;;;;6.17;4.40;;;23.70;99.90;;;;;;4916200;29;20684;-77
2022/08/04 07:23:18;;;;;;;6.10;4.10;;;23.80;99.90;;;;;;4934611;29;20229;-78
2022/08/04 07:25:53;;;;;;;10.10;4.68;;;23.80;99.90;;;;;;4935878;29;20191;-78
2022/08/04 07:28:59;;;;;;;8.80;4.40;;;24.00;99.90;;;;;;4936048;29;20273;-79
2022/08/04 07:31:31;;;;;;;6.68;4.10;;;24.10;99.90;;;;;;4918881;29;20207;-77
2022/08/04 07:34:02;;;;;;;6.00;4.13;;;24.20;99.90;;;;;;4918780;29;20205;-76
2022/08/04 07:36:52;;;;;;;6.47;4.47;;;24.30;99.90;;;;;;4934712;29;20206;-71
2022/08/04 07:39:24;;;;;;;9.32;4.55;;;24.50;99.90;;;;;;4934447;29;20195;-76
2022/08/04 07:41:57;;;;;;;7.30;4.97;;;24.60;99.90;;;;;;4902276;29;20207;-82
2022/08/04 07:44:24;;;;;;;8.88;5.00;;;24.70;99.90;;;;;;4899929;29;20237;-73
2022/08/04 07:46:51;;;;;;;6.57;4.43;;;24.80;99.90;;;;;;4931932;29;20556;-75
2022/08/04 07:49:21;;;;;;;5.95;4.28;;;24.90;99.90;;;;;;4917377;29;20709;-74
2022/08/04 07:52:09;;;;;;;6.68;4.30;;;25.00;99.90;;;;;;4918309;29;20191;-73
2022/08/04 07:54:40;;;;;;;7.55;4.22;;;25.10;99.90;;;;;;4935593;29;20203;-78
2022/08/04 07:57:07;;;;;;;5.78;3.92;;;25.10;99.90;;;;;;4918655;29;20242;-76
2022/08/04 08:40:50;;;;;;;6.05;2.95;;;29.80;99.90;;;;;;4986224;23;20293;-83
2022/08/04 09:04:29;;;;;;;5.18;2.55;;;31.20;95.00;;;;;;4934176;23;20303;-80
2022/08/04 09:39:00;;;;;;;4.72;2.90;;;31.20;89.00;;;;;;4241534;26;20238;-73
2022/08/04 09:41:35;;;;;;;12.00;3.65;;;31.20;88.60;;;;;;4919760;29;20203;-72
2022/08/04 09:44:27;;;;;;;4.22;3.08;;;31.50;90.20;;;;;;4919796;29;20321;-72
2022/08/04 09:47:31;;;;;;;3.47;3.03;;;31.80;89.80;;;;;;4936955;29;20202;-73
2022/08/04 09:50:28;;;;;;;5.78;3.35;;;32.30;86.80;;;;;;4920316;29;20271;-75
2022/08/04 09:53:05;;;;;;;3.10;2.80;;;32.30;86.80;;;;;;4919763;29;20199;-72
2022/08/04 09:55:45;;;;;;;4.43;3.05;;;32.00;84.00;;;;;;4936338;29;20239;-72
2022/08/04 09:58:49;;;;;;;5.30;3.10;;;32.40;84.20;;;;;;4919408;29;20195;-76
2022/08/04 10:01:20;;;;;;;15.05;3.85;;;32.40;81.60;;;;;;4936709;29;20187;-74
2022/08/04 10:03:59;;;;;;;8.32;3.78;;;32.20;80.90;;;;;;4916453;29;20298;-73
2022/08/04 10:07:21;;;;;;;5.88;3.70;;;32.50;82.00;;;;;;4900620;29;20295;-74
2022/08/04 10:10:25;;;;;;;6.55;3.10;;;32.70;80.50;;;;;;4874248;29;20264;-75
2022/08/04 10:13:18;;;;;;;4.40;3.00;;;33.10;79.50;;;;;;4876005;29;20284;-75
2022/08/04 10:16:13;;;;;;;11.25;3.55;;;33.20;77.90;;;;;;4861106;29;20300;-73
2022/08/04 10:19:05;;;;;;;9.82;3.88;;;33.50;77.30;;;;;;4852475;29;20239;-73
2022/08/04 10:21:49;;;;;;;5.95;3.20;;;33.60;77.20;;;;;;4860205;29;20205;-74
2022/08/04 10:24:34;;;;;;;4.15;3.40;;;33.70;76.00;;;;;;4877769;29;20797;-74
2022/08/04 10:27:24;;;;;;;7.15;4.00;;;33.90;76.80;;;;;;4858680;29;20475;-74
2022/08/04 10:29:57;;;;;;;4.30;3.25;;;33.90;74.80;;;;;;4860000;29;20677;-74
2022/08/04 10:32:39;;;;;;;8.05;3.53;;;33.60;74.90;;;;;;4860801;29;20205;-73
2022/08/04 10:35:22;;;;;;;6.70;3.42;;;33.70;75.60;;;;;;4859783;29;20410;-75
2022/08/04 10:38:23;;;;;;;8.13;3.70;;;34.40;76.00;;;;;;4860767;29;20328;-73
2022/08/04 10:41:02;;;;;;;6.10;3.60;;;34.70;74.50;;;;;;4862013;29;20209;-72
2022/08/04 10:43:45;;;;;;;5.40;3.75;;;35.00;71.30;;;;;;4880223;29;20679;-76
2022/08/04 10:46:16;;;;;;;10.65;3.78;;;34.30;71.30;;;;;;4924689;29;20298;-74
2022/08/04 10:48:43;;;;;;;7.85;4.05;;;34.70;69.80;;;;;;4933413;29;20254;-72
2022/08/04 10:51:49;;;;;;;7.13;3.83;;;34.30;70.30;;;;;;4918782;29;20568;-75
2022/08/04 10:55:02;;;;;;;6.57;3.70;;;34.40;70.50;;;;;;4904336;29;20207;-76
2022/08/04 10:57:34;;;;;;;4.45;3.60;;;34.90;71.80;;;;;;4913524;29;20556;-79
2022/08/04 11:00:13;;;;;;;5.32;3.80;;;35.10;68.40;;;;;;4908870;29;20192;-77
2022/08/04 11:02:56;;;;;;;6.30;3.42;;;35.20;68.80;;;;;;4909730;29;20210;-74
2022/08/04 11:05:27;;;;;;;6.30;3.70;;;35.30;67.90;;;;;;4910778;29;20317;-80
2022/08/04 11:08:12;;;;;;;5.90;3.38;;;35.40;65.50;;;;;;4910545;29;20290;-77
2022/08/04 11:10:58;;;;;;;4.45;3.30;;;35.70;69.20;;;;;;4927659;29;20199;-73
2022/08/04 11:13:52;;;;;;;4.45;3.53;;;35.80;66.10;;;;;;4918434;29;20634;-76
2022/08/04 11:16:25;;;;;;;3.75;3.08;;;36.10;65.00;;;;;;4905843;29;20195;-73
2022/08/04 11:18:57;;;;;;;7.93;3.20;;;35.20;63.90;;;;;;4935332;29;20297;-72
2022/08/04 11:21:30;;;;;;;5.32;3.30;;;35.40;64.00;;;;;;4917772;29;20614;-72
2022/08/04 11:24:15;;;;;;;3.88;3.30;;;35.80;63.80;;;;;;4918139;29;20309;-71
2022/08/04 11:27:16;;;;;;;3.78;3.47;;;36.00;63.30;;;;;;4918513;29;20305;-70
2022/08/04 11:29:58;;;;;;;4.85;3.30;;;35.50;61.50;;;;;;4879690;29;20247;-72
2022/08/04 11:32:54;;;;;;;3.70;3.40;;;35.10;62.30;;;;;;4879533;29;20222;-72
2022/08/04 11:35:51;;;;;;;12.75;3.90;;;35.50;62.10;;;;;;4823569;29;20715;-76
2022/08/04 11:38:26;;;;;;;8.60;4.07;;;35.80;61.60;;;;;;4809952;29;20712;-75
2022/08/04 11:41:06;;;;;;;4.28;3.33;;;35.50;61.00;;;;;;4793442;29;20670;-73
2022/08/04 11:43:52;;;;;;;11.23;3.85;;;35.70;61.20;;;;;;4823353;29;20202;-73
2022/08/04 11:46:41;;;;;;;4.43;3.38;;;35.90;59.30;;;;;;4807505;29;20218;-72
2022/08/04 11:49:40;;;;;;;3.97;3.13;;;35.40;61.50;;;;;;4823846;29;20207;-74
2022/08/04 11:52:26;;;;;;;6.88;3.13;;;35.80;60.00;;;;;;4806156;29;20626;-74
2022/08/04 11:54:54;;;;;;;5.07;3.00;;;35.70;60.20;;;;;;4824689;29;20222;-73
2022/08/04 11:57:23;;;;;;;9.45;3.60;;;36.30;59.80;;;;;;4809149;29;20207;-76
2022/08/04 12:00:09;;;;;;;8.93;3.35;;;35.70;59.00;;;;;;4809089;29;20206;-75
2022/08/04 12:03:00;;;;;;;6.15;2.95;;;35.30;59.30;;;;;;4828295;29;20208;-72
2022/08/04 12:05:32;;;;;;;5.07;3.10;;;35.80;59.80;;;;;;4821970;29;20227;-78
2022/08/04 12:08:21;;;;;;;9.05;3.40;;;36.40;58.10;;;;;;4849947;29;20202;-78
2022/08/04 12:11:27;;;;;;;4.20;3.20;;;36.60;58.10;;;;;;4854673;29;20258;-77
2022/08/04 12:14:32;;;;;;;5.25;3.42;;;36.30;58.20;;;;;;4917215;29;20203;-75
2022/08/04 12:17:04;;;;;;;3.47;3.10;;;35.70;56.60;;;;;;4876486;29;20348;-74
2022/08/04 12:19:49;;;;;;;7.85;3.72;;;36.20;59.20;;;;;;4855596;29;20672;-74
2022/08/04 12:22:39;;;;;;;6.68;3.40;;;36.80;58.90;;;;;;4878402;29;20295;-75
2022/08/04 12:25:17;;;;;;;7.68;3.60;;;37.40;56.60;;;;;;4861807;29;20750;-74
2022/08/04 12:27:50;;;;;;;3.47;3.10;;;37.60;56.30;;;;;;4863276;29;20205;-72
2022/08/04 12:30:18;;;;;;;4.22;3.08;;;37.90;56.50;;;;;;4864332;29;20209;-78
2022/08/04 12:33:22;;;;;;;5.30;3.13;;;38.20;55.80;;;;;;4879737;29;20236;-77
2022/08/04 12:36:18;;;;;;;6.07;3.30;;;38.60;54.20;;;;;;4876918;29;20209;-78
2022/08/04 12:39:03;;;;;;;5.00;3.33;;;38.80;55.30;;;;;;4871777;29;20730;-77
2022/08/04 12:41:38;;;;;;;3.17;2.60;;;38.30;53.30;;;;;;4877042;29;20662;-76
2022/08/04 12:44:09;;;;;;;7.03;2.70;;;38.60;54.20;;;;;;4861872;29;20236;-75
2022/08/04 12:46:58;;;;;;;5.65;3.08;;;38.40;53.00;;;;;;4858963;29;20688;-77
2022/08/04 12:49:48;;;;;;;3.20;2.90;;;38.30;53.00;;;;;;4859956;29;20193;-78
2022/08/04 12:52:27;;;;;;;7.00;2.90;;;38.30;52.50;;;;;;4880640;29;20300;-81
2022/08/04 12:55:17;;;;;;;3.08;2.78;;;38.00;51.30;;;;;;4910869;29;20200;-76
2022/08/04 12:57:54;;;;;;;3.35;2.88;;;37.50;52.20;;;;;;4920527;29;20288;-80
2022/08/04 13:00:26;;;;;;;3.28;2.90;;;37.40;52.90;;;;;;4911188;29;20191;-88
2022/08/04 13:05:26;;;;;;;3.05;2.75;;;37.70;52.40;;;;;;5103680;23;20244;-89
2022/08/04 13:08:03;;;;;;;7.70;3.08;;;37.60;52.40;;;;;;4927289;29;20195;-86
2022/08/04 13:10:40;;;;;;;2.90;2.60;;;37.90;51.60;;;;;;4913250;29;20604;-81
2022/08/04 13:13:15;;;;;;;3.08;2.80;;;38.10;50.90;;;;;;4916110;29;20265;-80
2022/08/04 13:15:59;;;;;;;4.97;2.90;;;37.60;52.30;;;;;;4919728;29;20235;-85
2022/08/04 13:18:29;;;;;;;6.13;3.03;;;37.90;53.30;;;;;;4914802;29;20206;-79
2022/08/04 13:27:47;;;;;;;5.07;2.75;;;38.30;50.60;;;;;;4965335;23;20225;-79
2022/08/04 13:30:34;;;;;;;4.72;2.70;;;38.00;51.70;;;;;;4930192;29;20225;-80
2022/08/04 13:33:41;;;;;;;3.83;2.83;;;37.70;51.00;;;;;;4944907;29;20286;-79
2022/08/04 13:39:01;;;;;;;7.35;2.90;;;37.80;51.20;;;;;;4924505;29;20735;-75
2022/08/04 13:41:30;;;;;;;4.35;3.22;;;38.20;50.60;;;;;;4939334;29;20304;-80
2022/08/04 13:44:00;;;;;;;3.83;2.85;;;38.20;50.50;;;;;;4932043;29;20194;-75
2022/08/04 13:47:05;;;;;;;5.65;2.80;;;38.30;50.20;;;;;;4940781;23;20241;-77
2022/08/04 13:49:38;;;;;;;6.47;3.00;;;38.50;49.80;;;;;;4929334;29;20283;-78
2022/08/04 13:52:25;;;;;;;2.83;2.60;;;38.50;49.00;;;;;;4945163;29;20664;-74
2022/08/04 13:54:52;;;;;;;4.28;2.60;;;37.60;47.90;;;;;;4919982;29;20286;-78
2022/08/04 13:57:29;;;;;;;3.40;2.78;;;37.80;49.30;;;;;;4926956;29;20206;-74
2022/08/04 14:00:08;;;;;;;3.25;2.45;;;38.10;48.20;;;;;;4925051;29;20195;-75
2022/08/04 14:02:57;;;;;;;2.63;2.42;;;37.60;48.30;;;;;;4903939;29;20595;-73
2022/08/04 14:05:45;;;;;;;2.90;2.60;;;37.90;49.20;;;;;;4929284;23;20297;-78
2022/08/04 14:08:34;;;;;;;5.68;2.78;;;38.00;48.00;;;;;;4926897;29;20674;-79
2022/08/04 14:11:03;;;;;;;3.65;2.60;;;38.40;48.60;;;;;;4927595;29;20208;-77
2022/08/04 14:13:37;;;;;;;4.85;2.70;;;38.50;49.00;;;;;;4927089;29;20657;-79
2022/08/04 14:16:20;;;;;;;7.93;3.20;;;38.50;47.20;;;;;;4923586;29;20222;-75
2022/08/04 14:18:55;;;;;;;3.17;2.40;;;38.80;47.90;;;;;;4914935;29;20677;-75
2022/08/04 14:21:23;;;;;;;2.35;2.15;;;38.80;47.50;;;;;;4900607;29;20197;-80
2022/08/04 14:23:53;;;;;;;3.92;2.70;;;38.70;46.40;;;;;;4905696;29;20203;-72
2022/08/04 14:26:22;;;;;;;2.58;2.33;;;38.60;46.60;;;;;;4890247;29;20219;-74
2022/08/04 14:29:13;;;;;;;4.60;2.20;;;38.30;46.70;;;;;;4911980;29;20596;-76
2022/08/04 14:32:04;;;;;;;3.20;2.50;;;38.70;46.70;;;;;;4910455;29;20203;-77
2022/08/04 14:34:51;;;;;;;5.13;2.70;;;38.70;46.30;;;;;;4926082;29;20230;-78
2022/08/04 14:37:23;;;;;;;10.38;2.97;;;38.70;46.30;;;;;;4928883;29;20660;-77
2022/08/04 14:39:53;;;;;;;2.50;2.13;;;38.60;46.20;;;;;;4901102;29;20259;-76
2022/08/04 14:42:42;;;;;;;3.03;2.40;;;38.30;46.50;;;;;;4908365;29;20211;-75
2022/08/04 14:45:09;;;;;;;9.57;3.30;;;38.30;47.80;;;;;;4933258;23;20250;-75
2022/08/04 14:47:45;;;;;;;5.30;2.70;;;37.90;47.10;;;;;;4934698;29;20772;-73
2022/08/04 14:50:19;;;;;;;2.40;2.20;;;38.00;47.80;;;;;;4936211;29;20232;-72
2022/08/04 14:52:46;;;;;;;12.60;3.15;;;37.80;47.50;;;;;;4930358;29;20297;-72
2022/08/04 14:55:22;;;;;;;6.20;2.90;;;37.70;47.90;;;;;;4909569;29;20188;-76
2022/08/04 14:57:50;;;;;;;4.60;2.50;;;38.00;47.60;;;;;;4905656;29;20207;-74
2022/08/04 15:00:37;;;;;;;4.25;2.60;;;38.40;48.00;;;;;;4924170;29;20213;-71
2022/08/04 15:03:09;;;;;;;3.15;2.30;;;38.90;50.40;;;;;;4914730;29;20217;-74
2022/08/04 15:05:39;;;;;;;3.63;2.40;;;38.80;50.80;;;;;;4934767;29;20223;-75
2022/08/04 15:08:29;;;;;;;3.20;2.90;;;38.20;51.90;;;;;;4934660;29;20225;-79
2022/08/04 15:11:01;;;;;;;4.18;2.53;;;37.30;52.90;;;;;;4918805;29;20206;-79
2022/08/04 15:13:31;;;;;;;2.60;2.40;;;37.00;53.00;;;;;;4935274;29;20671;-81
2022/08/04 15:15:59;;;;;;;2.80;2.50;;;37.00;50.70;;;;;;4918524;29;20210;-77
2022/08/04 15:18:36;;;;;;;7.45;2.72;;;36.80;51.70;;;;;;4917924;29;20253;-80
2022/08/04 15:21:05;;;;;;;4.03;2.53;;;36.90;55.10;;;;;;4918397;29;20254;-77
2022/08/04 15:23:34;;;;;;;5.60;2.58;;;36.90;53.40;;;;;;4918373;29;20206;-77
2022/08/04 15:26:11;;;;;;;4.88;2.70;;;37.50;54.40;;;;;;4934869;29;20235;-76
2022/08/04 15:28:41;;;;;;;5.30;2.53;;;37.70;50.80;;;;;;4918208;29;20743;-78
2022/08/04 15:31:09;;;;;;;4.57;2.78;;;37.70;52.30;;;;;;4918173;29;20225;-77
2022/08/04 15:34:02;;;;;;;5.05;2.83;;;37.60;50.80;;;;;;4933588;29;20218;-77
2022/08/04 15:36:41;;;;;;;2.40;2.20;;;37.80;50.30;;;;;;4934316;29;20274;-79
2022/08/04 15:39:37;;;;;;;7.22;2.80;;;37.40;51.90;;;;;;4917754;29;20194;-79
2022/08/04 15:42:31;;;;;;;5.60;2.38;;;38.00;48.80;;;;;;4917737;29;20195;-77
2022/08/04 15:45:42;;;;;;;3.95;2.58;;;37.70;48.00;;;;;;4933534;29;20648;-77
2022/08/04 15:48:30;;;;;;;3.75;2.55;;;37.80;49.50;;;;;;4860974;29;20240;-76